createdAt,value
2023-05-14T00:00:57.220Z,100664.63
2023-05-14T00:06:04.715Z,100658.86
2023-05-14T00:11:12.202Z,100658.02
2023-05-14T00:16:19.512Z,100660.17
2023-05-14T00:21:26.949Z,100654.55
2023-05-14T00:26:34.541Z,100654.92
2023-05-14T00:31:41.887Z,100656.09
2023-05-14T00:36:49.570Z,100656.59
2023-05-14T00:41:57.092Z,100654.81
2023-05-14T00:47:05.179Z,100658.48
2023-05-14T00:52:14.735Z,100659.86
2023-05-14T00:57:22.770Z,100659.98
2023-05-14T01:02:30.252Z,100655.96
2023-05-14T01:07:51.245Z,100661.70
2023-05-14T01:13:05.850Z,100657.63
2023-05-14T01:18:15.729Z,100661.27
2023-05-14T01:23:23.603Z,100658.11
2023-05-14T01:28:35.777Z,100657.38
2023-05-14T01:33:45.081Z,100655.95
2023-05-14T01:38:53.561Z,100655.20
2023-05-14T01:44:01.340Z,100651.66
2023-05-14T01:49:09.003Z,100651.25
2023-05-14T01:54:16.492Z,100646.48
2023-05-14T01:59:23.749Z,100648.73
2023-05-14T02:04:31.038Z,100646.39
2023-05-14T02:09:38.365Z,100643.71
2023-05-14T02:14:46.447Z,100644.70
2023-05-14T02:19:53.967Z,100641.85
2023-05-14T02:25:01.519Z,100642.15
2023-05-14T02:30:10.684Z,100640.15
2023-05-14T02:35:19.531Z,100635.03
2023-05-14T02:40:27.095Z,100640.41
2023-05-14T02:45:34.697Z,100635.84
2023-05-14T02:50:42.023Z,100635.75
2023-05-14T02:55:49.385Z,100635.86
2023-05-14T03:00:56.976Z,100634.19
2023-05-14T03:06:05.216Z,100633.71
2023-05-14T03:11:13.093Z,100630.97
2023-05-14T03:16:20.775Z,100633.26
2023-05-14T03:21:28.243Z,100629.95
2023-05-14T03:26:35.571Z,100626.81
2023-05-14T03:31:42.989Z,100633.95
2023-05-14T03:36:50.951Z,100630.95
2023-05-14T03:41:59.352Z,100625.80
2023-05-14T03:47:07.909Z,100624.05
2023-05-14T03:52:15.389Z,100620.40
2023-05-14T03:57:24.309Z,100616.48
2023-05-14T04:02:31.672Z,100613.55
2023-05-14T04:07:39.077Z,100605.67
2023-05-14T04:12:46.560Z,100598.48
2023-05-14T04:17:54.231Z,100599.20
2023-05-14T04:23:01.563Z,100602.38
2023-05-14T04:28:09.166Z,100599.71
2023-05-14T04:33:16.411Z,100598.44
2023-05-14T04:38:24.183Z,100596.86
2023-05-14T04:43:31.506Z,100584.30
2023-05-14T04:48:39.146Z,100573.60
2023-05-14T04:53:46.956Z,100586.91
2023-05-14T04:58:54.543Z,100584.80
2023-05-14T05:04:01.893Z,100567.45
2023-05-14T05:09:10.468Z,100574.80
2023-05-14T05:14:17.868Z,100571.19
2023-05-14T05:19:35.746Z,100572.30
2023-05-14T05:24:49.812Z,100567.65
2023-05-14T05:29:57.931Z,100571.52
2023-05-14T05:35:05.624Z,100574.85
2023-05-14T05:40:14.782Z,100565.59
2023-05-14T05:45:22.642Z,100563.66
2023-05-14T05:50:30.513Z,100563.80
2023-05-14T05:55:38.212Z,100565.41
2023-05-14T06:00:45.870Z,100561.73
2023-05-14T06:05:53.590Z,100561.50
2023-05-14T06:11:01.131Z,100561.14
2023-05-14T06:16:09.355Z,100562.50
2023-05-14T06:21:16.764Z,100561.13
2023-05-14T06:26:24.784Z,100556.80
2023-05-14T06:31:32.361Z,100556.44
2023-05-14T06:36:39.905Z,100556.13
2023-05-14T06:41:47.463Z,100561.77
2023-05-14T06:46:55.382Z,100556.48
2023-05-14T06:52:04.467Z,100558.48
2023-05-14T06:57:12.383Z,100551.31
2023-05-14T07:02:20.651Z,100549.02
2023-05-14T07:07:28.489Z,100545.54
2023-05-14T07:12:37.284Z,100545.23
2023-05-14T07:17:44.777Z,100540.56
2023-05-14T07:22:52.967Z,100540.61
2023-05-14T07:28:00.499Z,100537.90
2023-05-14T07:33:08.134Z,100533.10
2023-05-14T07:38:16.066Z,100532.98
2023-05-14T07:43:24.082Z,100527.69
2023-05-14T07:48:31.914Z,100528.58
2023-05-14T07:53:39.893Z,100526.52
2023-05-14T07:58:47.766Z,100519.58
2023-05-14T08:03:55.579Z,100512.69
2023-05-14T08:09:05.837Z,100507.61
2023-05-14T08:14:13.778Z,100500.27
2023-05-14T08:19:21.872Z,100496.16
2023-05-14T08:24:30.588Z,100489.87
2023-05-14T08:29:38.467Z,100489.11
2023-05-14T08:34:45.948Z,100492.02
2023-05-14T08:39:54.449Z,100489.45
2023-05-14T08:45:05.133Z,100480.11
2023-05-14T08:50:13.814Z,100481.05
2023-05-14T08:55:21.903Z,100476.00
2023-05-14T09:00:29.884Z,100473.03
2023-05-14T09:05:37.453Z,100462.11
2023-05-14T09:10:44.963Z,100461.70
2023-05-14T09:15:53.491Z,100461.09
2023-05-14T09:21:02.368Z,100458.80
2023-05-14T09:26:11.069Z,100462.30
2023-05-14T09:31:18.611Z,100454.71
2023-05-14T09:36:27.826Z,100448.33
2023-05-14T09:41:35.149Z,100442.13
2023-05-14T09:46:42.689Z,100437.59
2023-05-14T09:51:50.706Z,100428.90
2023-05-14T09:56:58.397Z,100418.04
2023-05-14T10:02:07.268Z,100415.20
2023-05-14T10:07:16.996Z,100401.38
2023-05-14T10:12:31.352Z,100402.35
2023-05-14T10:17:43.239Z,100398.69
2023-05-14T10:22:50.801Z,100399.55
2023-05-14T10:27:58.711Z,100382.63
2023-05-14T10:33:14.725Z,100394.36
2023-05-14T10:38:31.157Z,100390.64
2023-05-14T10:43:41.943Z,100382.57
2023-05-14T10:48:50.679Z,100384.30
2023-05-14T10:53:59.071Z,100380.04
2023-05-14T10:59:08.386Z,100367.77
2023-05-14T11:04:25.373Z,100360.04
2023-05-14T11:09:34.203Z,100352.52
2023-05-14T11:14:41.879Z,100353.40
2023-05-14T11:19:51.080Z,100344.58
2023-05-14T11:24:59.822Z,100339.64
2023-05-14T11:30:14.418Z,100329.77
2023-05-14T11:35:22.020Z,100323.89
2023-05-14T11:40:29.556Z,100318.91
2023-05-14T11:45:38.473Z,100313.07
2023-05-14T11:50:49.296Z,100300.20
2023-05-14T11:55:58.775Z,100297.59
2023-05-14T12:01:06.628Z,100286.44
2023-05-14T12:06:13.993Z,100282.92
2023-05-14T12:11:24.667Z,100285.02
2023-05-14T12:16:36.907Z,100282.79
2023-05-14T12:21:48.115Z,100277.30
2023-05-14T12:26:55.992Z,100275.73
2023-05-14T12:32:05.082Z,100271.88
2023-05-14T12:37:12.835Z,100259.34
2023-05-14T12:42:20.425Z,100252.52
2023-05-14T12:47:28.288Z,100246.10
2023-05-14T12:52:39.661Z,100244.17
2023-05-14T12:57:48.497Z,100237.65
2023-05-14T13:02:56.396Z,100236.01
2023-05-14T13:08:04.847Z,100233.88
2023-05-14T13:13:15.342Z,100230.52
2023-05-14T13:18:27.864Z,100224.89
2023-05-14T13:23:35.852Z,100208.79
2023-05-14T13:28:43.311Z,100204.77
2023-05-14T13:33:50.831Z,100193.15
2023-05-14T13:38:58.627Z,100196.42
2023-05-14T13:44:06.790Z,100186.39
2023-05-14T13:49:14.368Z,100189.16
2023-05-14T13:54:21.859Z,100184.23
2023-05-14T13:59:30.207Z,100173.55
2023-05-14T14:04:38.127Z,100163.05
2023-05-14T14:09:45.619Z,100150.93
2023-05-14T14:14:53.425Z,100139.95
2023-05-14T14:20:00.860Z,100147.89
2023-05-14T14:25:09.630Z,100148.38
2023-05-14T14:30:17.978Z,100137.41
2023-05-14T14:35:25.787Z,100138.08
2023-05-14T14:40:34.600Z,100132.12
2023-05-14T14:45:43.265Z,100127.71
2023-05-14T14:50:50.857Z,100119.27
2023-05-14T14:55:59.084Z,100116.95
2023-05-14T15:01:06.747Z,100114.68
2023-05-14T15:06:14.651Z,100112.66
2023-05-14T15:11:22.721Z,100107.66
2023-05-14T15:16:30.240Z,100101.34
2023-05-14T15:21:38.269Z,100094.48
2023-05-14T15:26:46.667Z,100093.84
2023-05-14T15:31:54.484Z,100086.53
2023-05-14T15:37:02.062Z,100085.31
2023-05-14T15:42:10.647Z,100078.14
2023-05-14T15:47:18.523Z,100082.02
2023-05-14T15:52:26.265Z,100079.39
2023-05-14T15:57:33.770Z,100070.77
2023-05-14T16:02:41.871Z,100073.86
2023-05-14T16:07:49.731Z,100068.48
2023-05-14T16:13:01.110Z,100065.90
2023-05-14T16:18:09.043Z,100056.40
2023-05-14T16:23:16.613Z,100054.01
2023-05-14T16:28:23.926Z,100045.67
2023-05-14T16:33:31.517Z,100044.79
2023-05-14T16:38:44.727Z,100039.32
2023-05-14T16:44:00.649Z,100036.40
2023-05-14T16:49:08.206Z,100033.41
2023-05-14T16:54:17.956Z,100034.68
2023-05-14T16:59:26.064Z,100032.46
2023-05-14T17:04:33.873Z,100027.94
2023-05-14T17:09:42.959Z,100026.95
2023-05-14T17:14:50.572Z,100028.06
2023-05-14T17:19:58.657Z,100030.04
2023-05-14T17:25:06.733Z,100039.45
2023-05-14T17:30:15.536Z,100036.52
2023-05-14T17:35:24.321Z,100032.84
2023-05-14T17:40:31.868Z,100037.73
2023-05-14T17:45:53.185Z,100030.42
2023-05-14T17:51:02.356Z,100032.25
2023-05-14T17:56:10.929Z,100033.56
2023-05-14T18:01:18.878Z,100037.50
2023-05-14T18:06:27.024Z,100037.27
2023-05-14T18:11:35.099Z,100035.83
2023-05-14T18:16:43.415Z,100038.05
2023-05-14T18:21:51.738Z,100038.64
2023-05-14T18:26:59.529Z,100039.14
2023-05-14T18:32:09.234Z,100039.86
2023-05-14T18:37:17.354Z,100032.48
2023-05-14T18:42:25.392Z,100033.72
2023-05-14T18:47:33.393Z,100035.50
2023-05-14T18:52:40.924Z,100040.98
2023-05-14T18:57:49.474Z,100036.23
2023-05-14T19:02:58.696Z,100035.63
2023-05-14T19:08:06.802Z,100033.52
2023-05-14T19:13:18.344Z,100031.40
2023-05-14T19:18:26.182Z,100019.70
2023-05-14T19:23:34.029Z,100028.96
2023-05-14T19:28:43.436Z,100034.41
2023-05-14T19:33:51.943Z,100038.45
2023-05-14T19:39:06.500Z,100040.27
2023-05-14T19:44:14.023Z,100035.30
2023-05-14T19:49:21.381Z,100021.21
2023-05-14T19:54:29.425Z,100018.69
2023-05-14T19:59:38.809Z,100018.42
2023-05-14T20:04:46.488Z,100019.02
2023-05-14T20:09:54.315Z,100021.15
2023-05-14T20:15:02.382Z,100016.73
2023-05-14T20:20:12.475Z,100020.83
2023-05-14T20:25:20.595Z,100016.39
2023-05-14T20:30:27.891Z,100012.41
2023-05-14T20:35:35.274Z,100012.56
2023-05-14T20:40:45.014Z,100006.30
2023-05-14T20:45:54.815Z,100002.40
2023-05-14T20:51:05.359Z,100003.26
2023-05-14T20:56:12.886Z,100004.00
2023-05-14T21:01:21.364Z,100007.60
2023-05-14T21:06:29.069Z,100009.13
2023-05-14T21:11:36.763Z,100000.32
2023-05-14T21:16:45.337Z,99997.70
2023-05-14T21:21:53.564Z,99988.65
2023-05-14T21:27:00.861Z,99983.92
2023-05-14T21:32:10.622Z,99987.15
2023-05-14T21:37:18.675Z,99985.50
2023-05-14T21:42:26.941Z,99980.71
2023-05-14T21:47:36.666Z,99978.30
2023-05-14T21:52:45.702Z,99972.17
2023-05-14T21:57:54.089Z,99967.03
2023-05-14T22:03:02.249Z,99962.11
2023-05-14T22:08:11.178Z,99962.04
2023-05-14T22:13:19.348Z,99959.52
2023-05-14T22:18:29.120Z,99958.39
2023-05-14T22:23:37.663Z,99957.27
2023-05-14T22:28:46.504Z,99960.55
2023-05-14T22:33:54.762Z,99955.91
2023-05-14T22:39:04.180Z,99959.10
2023-05-14T22:44:11.905Z,99955.91
2023-05-14T22:49:19.658Z,99945.42
2023-05-14T22:54:27.940Z,99937.29
2023-05-14T22:59:35.416Z,99930.81
2023-05-14T23:04:43.327Z,99926.27
2023-05-14T23:09:52.325Z,99919.54
2023-05-14T23:15:01.560Z,99917.23
2023-05-14T23:20:14.685Z,99915.75
2023-05-14T23:25:22.455Z,99898.91
2023-05-14T23:30:30.026Z,99899.45
2023-05-14T23:35:37.574Z,99893.48
2023-05-14T23:40:44.881Z,99888.74
2023-05-14T23:45:52.306Z,99881.42
2023-05-14T23:50:59.958Z,99868.91
2023-05-14T23:56:08.499Z,99858.35
